Flight Track Log - Related Links

Times and Time Zones

All times are in EDT time to prevent confusion due to time zone crossing. See the ENY3640 flight status page for this flight to view local times or setup timezone preferences in your user account.

Time Position Orientation Groundspeed Altitude Reporting Facility
EDT Latitude Longitude Course Direction KTS MPH feet Rate Location/Type
Mon 05:39:08 PM 33.9306 -118.4467 96° East 169 194 1,500  Level Los Angeles Center
Mon 05:40:10 PM 33.8919 -118.5111 234° Southwest 230 265 3,000 1,839 Climbing Los Angeles Center
Mon 05:41:00 PM 33.9047 -117.9123 95° East  Level Estimated
Mon 05:41:12 PM 33.8289 -118.5547 210° Southwest 275 316 5,300  Level Los Angeles Center
Mon 05:42:00 PM 33.8917 -117.7471 95° East  Level Estimated
Mon 05:42:14 PM 33.7592 -118.5383 169° South 277 319 7,300  Level Los Angeles Center
Mon 05:43:00 PM 33.8784 -117.5820 95° East  Level Estimated
Mon 05:43:17 PM 33.6839 -118.4758 145° Southeast 310 357 9,800  Level Los Angeles Center
Mon 05:44:00 PM 33.8649 -117.4170 96° East  Level Estimated
Mon 05:44:19 PM 33.6525 -118.3747 110° East 322 371 11,000  Level Los Angeles Center
Mon 05:45:21 PM 33.6433 -118.2594 95° East 353 406 13,300 1,887 Climbing Los Angeles Center
Mon 05:46:23 PM 33.6453 -118.1144 89° East 367 422 14,900 1,645 Climbing Los Angeles Center
Mon 05:47:25 PM 33.6447 -117.9886 90° East 379 436 16,700 1,645 Climbing Los Angeles Center
Mon 05:48:27 PM 33.6444 -117.8614 90° East 380 437 18,300 1,452 Climbing Los Angeles Center
Mon 05:49:29 PM 33.6433 -117.7300 91° East 393 452 19,700 1,355 Climbing Los Angeles Center
Mon 05:50:31 PM 33.6433 -117.5978 90° East 397 457 21,100 1,258 Climbing Los Angeles Center
Mon 05:51:33 PM 33.6425 -117.4644 90° East 399 459 22,300 1,200 Climbing Los Angeles Center
Mon 05:52:36 PM 33.6406 -117.2989 91° East 412 474 23,600 1,104 Climbing Los Angeles Center
Mon 05:53:38 PM 33.6397 -117.1581 90° East 422 486 24,600 968 Climbing Los Angeles Center
Mon 05:54:40 PM 33.6369 -117.0133 91° East 433 498 25,600 968 Climbing Los Angeles Center
Mon 05:55:42 PM 33.6100 -116.8703 103° East 440 506 26,600 1,016 Climbing Los Angeles Center
Mon 05:56:44 PM 33.5853 -116.7036 100° East 447 514 27,700 919 Climbing Los Angeles Center
Mon 05:57:46 PM 33.5631 -116.5544 100° East 449 517 28,500 774 Climbing Los Angeles Center
Mon 05:58:48 PM 33.5397 -116.4022 100° East 456 525 29,300 774 Climbing Los Angeles Center
Mon 05:59:50 PM 33.5164 -116.2494 100° East 459 528 30,100 726 Climbing Los Angeles Center
Mon 06:00:52 PM 33.4958 -116.0928 99° East 469 540 30,800 672 Climbing Los Angeles Center
Mon 06:01:55 PM 33.4753 -115.9344 99° East 474 545 31,500 768 Climbing Los Angeles Center
Mon 06:02:57 PM 33.4500 -115.7436 99° East 478 550 32,400 774 Climbing Los Angeles Center
Mon 06:03:59 PM 33.4278 -115.5847 99° East 480 552 33,100 629 Climbing Los Angeles Center
Mon 06:05:01 PM 33.4072 -115.4256 99° East 482 555 33,700 528 Climbing Los Angeles Center
Mon 06:06:04 PM 33.3847 -115.2658 100° East 485 558 34,200 480 Climbing Los Angeles Center
Mon 06:07:06 PM 33.3628 -115.1053 99° East 489 563 34,700 484 Climbing Los Angeles Center
Mon 06:08:08 PM 33.3392 -114.9433 100° East 491 565 35,200 532 Climbing Los Angeles Center
Mon 06:09:10 PM 33.3133 -114.7478 99° East 497 572 35,800 532 Climbing Los Angeles Center
Mon 06:10:12 PM 33.2911 -114.5867 99° East 495 570 36,300 484 Climbing Los Angeles Center
Mon 06:11:14 PM 33.2675 -114.4247 100° East 495 570 36,800 442 Climbing Los Angeles Center
Mon 06:11:47 PM 33.2564 -114.3308 98° East 493 567 37,000 126 Climbing Albuquerque Center
Mon 06:12:49 PM 33.2328 -114.1689 100° East 494 568 37,000  Level Albuquerque Center
Mon 06:13:51 PM 33.2086 -114.0047 100° East 496 571 37,000  Level Albuquerque Center
Mon 06:14:53 PM 33.1844 -113.8408 100° East 498 573 37,000  Level Albuquerque Center
Mon 06:15:23 PM 33.1683 -113.7422 101° East 498 573 37,000  Level Los Angeles Center
Mon 06:16:26 PM 33.1442 -113.5794 100° East 497 572 37,000  Level Los Angeles Center
Mon 06:16:56 PM 33.1353 -113.5164 100° East 498 573 37,000  Level Albuquerque Center
Mon 06:17:58 PM 33.1064 -113.3233 100° East 495 570 37,000  Level Albuquerque Center
Mon 06:19:00 PM 33.0808 -113.1633 101° East 495 570 37,000  Level Albuquerque Center
Mon 06:20:02 PM 33.0567 -113.0031 100° East 492 566 37,000  Level Albuquerque Center
Mon 06:21:03 PM 33.0314 -112.8431 101° East 492 566 37,000  Level Albuquerque Center
Mon 06:22:05 PM 33.0064 -112.6836 101° East 491 565 37,000  Level Albuquerque Center
Mon 06:23:07 PM 32.9803 -112.5258 101° East 486 559 37,000  Level Albuquerque Center
Mon 06:24:09 PM 32.9547 -112.3661 101° East 486 559 37,000  Level Albuquerque Center
Mon 06:25:10 PM 32.9281 -112.2014 101° East 487 560 37,000  Level Albuquerque Center
Mon 06:26:12 PM 32.9031 -112.0436 101° East 487 560 37,000  Level Albuquerque Center
Mon 06:27:14 PM 32.8772 -111.8867 101° East 487 560 37,000  Level Albuquerque Center
Mon 06:28:15 PM 32.8467 -111.6986 101° East 487 560 37,000  Level Albuquerque Center
Mon 06:29:17 PM 32.8197 -111.5417 102° East 487 560 37,000  Level Albuquerque Center
Mon 06:30:19 PM 32.7933 -111.3856 101° East 487 560 37,000  Level Albuquerque Center
Mon 06:31:20 PM 32.7675 -111.2286 101° East 487 560 37,000  Level Albuquerque Center
Mon 06:32:22 PM 32.7400 -111.0728 102° East 485 558 37,000  Level Albuquerque Center
Mon 06:33:24 PM 32.7125 -110.9150 102° East 486 559 37,000  Level Albuquerque Center
Mon 06:34:25 PM 32.6808 -110.7275 101° East 486 559 37,000  Level Albuquerque Center
Mon 06:35:27 PM 32.6528 -110.5708 102° East 486 559 37,000  Level Albuquerque Center
Mon 06:36:28 PM 32.6250 -110.4133 102° East 487 560 37,000  Level Albuquerque Center
Mon 06:37:30 PM 32.5953 -110.2508 102° East 487 560 37,000  Level Albuquerque Center
Mon 06:38:31 PM 32.5675 -110.0956 102° East 487 560 37,000  Level Albuquerque Center
Mon 06:39:33 PM 32.5392 -109.9392 102° East 487 560 37,000  Level Albuquerque Center
Mon 06:40:35 PM 32.5100 -109.7842 103° East 487 560 37,000  Level Albuquerque Center
Mon 06:41:36 PM 32.4800 -109.6258 103° East 490 564 37,000  Level Albuquerque Center
Mon 06:42:38 PM 32.4508 -109.4703 102° East 490 564 37,000  Level Albuquerque Center
Mon 06:43:39 PM 32.4164 -109.2850 102° East 489 563 37,000  Level Albuquerque Center
Mon 06:44:41 PM 32.3872 -109.1306 103° East 488 562 37,000  Level Albuquerque Center
Mon 06:45:43 PM 32.3581 -108.9756 103° East 488 562 37,000  Level Albuquerque Center
Mon 06:46:44 PM 32.3289 -108.8217 103° East 488 562 37,000  Level Albuquerque Center
Mon 06:47:46 PM 32.2992 -108.6658 103° East 488 562 37,000  Level Albuquerque Center
Mon 06:48:48 PM 32.2700 -108.5106 102° East 488 562 37,000  Level Albuquerque Center
Mon 06:49:49 PM 32.2342 -108.3308 103° East 488 562 37,000  Level Albuquerque Center
Mon 06:50:51 PM 32.2028 -108.1747 103° East 488 562 37,000  Level Albuquerque Center
Mon 06:51:53 PM 32.1728 -108.0192 103° East 488 562 37,000  Level Albuquerque Center
Mon 06:52:54 PM 32.1422 -107.8633 103° East 489 563 37,000  Level Albuquerque Center
Mon 06:53:56 PM 32.1114 -107.7086 103° East 489 563 37,000  Level Albuquerque Center
Mon 06:54:57 PM 32.0728 -107.5233 104° East 489 563 37,000  Level Albuquerque Center
Mon 06:55:59 PM 32.0431 -107.3703 103° East 488 562 37,000  Level Albuquerque Center
Mon 06:57:01 PM 32.0119 -107.2147 103° East 489 563 37,000  Level Albuquerque Center
Mon 06:58:02 PM 31.9808 -107.0617 103° East 489 563 37,000  Level Albuquerque Center
Mon 06:59:04 PM 31.9489 -106.9075 104° East 489 563 37,000  Level Albuquerque Center
Mon 07:00:05 PM 31.9100 -106.7244 104° East 486 559 37,000  Level Albuquerque Center
Mon 07:01:07 PM 31.8775 -106.5703 104° East 487 560 37,000  Level Albuquerque Center
Mon 07:02:09 PM 31.8461 -106.4178 104° East 498 573 37,000  Level Albuquerque Center
Mon 07:03:10 PM 31.8039 -106.2656 108° East 496 571 37,000  Level Albuquerque Center
Mon 07:04:12 PM 31.7422 -106.1222 117° Southeast 492 566 37,000  Level Albuquerque Center
Mon 07:05:14 PM 31.6828 -105.9783 116° Southeast 491 565 37,000  Level Albuquerque Center
Mon 07:06:15 PM 31.6100 -105.8067 116° Southeast 491 565 37,000  Level Albuquerque Center
Mon 07:07:17 PM 31.5503 -105.6619 116° Southeast 491 565 37,000  Level Albuquerque Center
Mon 07:08:18 PM 31.4906 -105.5183 116° Southeast 491 565 37,000  Level Albuquerque Center
Mon 07:09:20 PM 31.4308 -105.3742 116° Southeast 491 565 37,000  Level Albuquerque Center
Mon 07:10:21 PM 31.3697 -105.2314 117° Southeast 491 565 37,000  Level Albuquerque Center
Mon 07:11:23 PM 31.3100 -105.0878 116° Southeast 491 565 37,000  Level Albuquerque Center
Mon 07:12:24 PM 31.2481 -104.9464 117° Southeast 488 562 37,000  Level Albuquerque Center
Mon 07:13:26 PM 31.1869 -104.8031 116° Southeast 487 560 37,000  Level Albuquerque Center
Mon 07:14:27 PM 31.1258 -104.6606 117° Southeast 487 560 37,000  Level Albuquerque Center
Mon 07:15:29 PM 31.0636 -104.5183 117° Southeast 488 562 37,000  Level Albuquerque Center
Mon 07:16:30 PM 31.0017 -104.3764 117° Southeast 488 562 37,000  Level Albuquerque Center
Mon 07:17:32 PM 30.9269 -104.2081 117° Southeast 488 562 37,000  Level Albuquerque Center
Mon 07:18:33 PM 30.8653 -104.0683 117° Southeast 487 560 37,000  Level Albuquerque Center
Mon 07:19:35 PM 30.8031 -103.9278 117° Southeast 487 560 37,000  Level Albuquerque Center
Mon 07:20:36 PM 30.7414 -103.7894 117° Southeast 486 559 37,000  Level Albuquerque Center
Mon 07:21:38 PM 30.6731 -103.6331 117° Southeast 486 559 37,000 339 Level Albuquerque Center
Mon 07:22:40 PM 30.6108 -103.4919 117° Southeast 487 560 37,700 732 Climbing Albuquerque Center
Mon 07:23:41 PM 30.5506 -103.3558 117° Southeast 482 555 38,500 634 Climbing Albuquerque Center
Mon 07:24:43 PM 30.4908 -103.2231 118° Southeast 473 544 39,000 244 Climbing Albuquerque Center
Mon 07:25:44 PM 30.4317 -103.0883 117° Southeast 472 543 39,000  Level Albuquerque Center
Mon 07:26:45 PM 30.3714 -102.9542 117° Southeast 472 543 39,000  Level Albuquerque Center
Mon 07:27:47 PM 30.3119 -102.8211 117° Southeast 472 543 39,000  Level Albuquerque Center
Mon 07:28:48 PM 30.2400 -102.6606 117° Southeast 471 542 39,000  Level Albuquerque Center
Mon 07:29:21 PM 30.2172 -102.6097 117° Southeast 471 542 39,000  Level Houston Center
Mon 07:30:22 PM 30.1569 -102.4775 118° Southeast 471 542 39,000  Level Houston Center
Mon 07:31:24 PM 30.0836 -102.3183 118° Southeast 470 541 39,000  Level Houston Center
Mon 07:32:26 PM 30.0225 -102.1842 118° Southeast 471 542 39,000  Level Houston Center
Mon 07:33:28 PM 29.9672 -102.0647 118° Southeast 470 541 39,000  Level Houston Center
Mon 07:34:30 PM 29.8933 -101.9075 118° Southeast 469 540 39,000  Level Houston Center
Mon 07:35:31 PM 29.8325 -101.7744 118° Southeast 469 540 39,000  Level Houston Center
Mon 07:36:33 PM 29.7703 -101.6422 118° Southeast 469 540 39,000  Level Houston Center
Mon 07:37:35 PM 29.7094 -101.5114 118° Southeast 469 540 39,000  Level Houston Center
Mon 07:38:37 PM 29.6481 -101.3783 118° Southeast 469 540 39,000  Level Houston Center
Mon 07:39:38 PM 29.5847 -101.2478 119° Southeast 470 541 39,000  Level Houston Center
Mon 07:40:40 PM 29.5236 -101.1153 118° Southeast 470 541 39,000  Level Houston Center
Mon 07:41:42 PM 29.4492 -100.9572 118° Southeast 470 541 39,000  Level Houston Center
Mon 07:42:44 PM 29.3969 -100.8217 114° Southeast 470 541 39,000  Level Houston Center
Mon 07:43:45 PM 29.3394 -100.6883 116° Southeast 470 541 39,000  Level Houston Center
Mon 07:44:47 PM 29.2842 -100.5553 115° Southeast 469 540 39,000  Level Houston Center
Mon 07:45:49 PM 29.2406 -100.4150 110° East 469 540 39,000  Level Houston Center
Mon 07:46:51 PM 29.1875 -100.2483 110° East 468 539 39,000  Level Houston Center
Mon 07:47:52 PM 29.1467 -100.1194 110° East 468 539 39,000  Level Houston Center
Mon 07:48:54 PM 29.1000 -99.9706 110° East 468 539 39,000  Level Houston Center
Mon 07:49:56 PM 29.0561 -99.8314 110° East 468 539 39,000  Level Houston Center
Mon 07:50:58 PM 29.0111 -99.6936 110° East 468 539 39,000  Level Houston Center
Mon 07:52:00 PM 28.9664 -99.5553 110° East 467 537 39,000  Level Houston Center
Mon 07:53:01 PM 28.9231 -99.4167 110° East 467 537 39,000 -49 Level Houston Center
Mon 07:54:03 PM 28.8744 -99.2694 111° Southeast 466 536 38,900  Descending Houston Center
Mon 07:55:05 PM 28.8294 -99.1303 110° East 465 535 39,000 48 Climbing Houston Center
Mon 07:56:07 PM 28.7742 -98.9639 111° Southeast 464 534 39,000  Level Houston Center
Mon 07:57:09 PM 28.7569 -98.8203 98° East 464 534 39,000  Level Houston Center
Mon 07:58:10 PM 28.7922 -98.6717 75° East 453 521 39,000  Level Houston Center
Mon 07:59:12 PM 28.8356 -98.5372 70° East 454 522 39,000  Level Houston Center
Mon 08:00:14 PM 28.8772 -98.4031 70° East 453 521 39,000  Level Houston Center
Mon 08:01:16 PM 28.9228 -98.2569 70° East 454 522 39,000  Level Houston Center
Mon 08:02:18 PM 28.9656 -98.1222 70° East 454 522 39,000  Level Houston Center
Mon 08:03:19 PM 29.0100 -97.9761 71° East 454 522 39,000  Level Houston Center
Mon 08:04:21 PM 29.0525 -97.8400 70° East 454 522 39,000  Level Houston Center
Mon 08:05:23 PM 29.0953 -97.7047 70° East 455 524 39,000  Level Houston Center
Mon 08:06:25 PM 29.1364 -97.5681 71° East 455 524 39,000  Level Houston Center
Mon 08:07:27 PM 29.1786 -97.4303 71° East 458 527 39,000 -927 Level Houston Center
Mon 08:08:28 PM 29.2200 -97.2908 71° East 462 532 37,100 -2,098 Descending Houston Center
Mon 08:09:30 PM 29.2639 -97.1494 70° East 471 542 34,700 -2,371 Descending Houston Center
Mon 08:10:32 PM 29.3064 -97.0061 71° East 474 545 32,200 -2,585 Descending Houston Center
Mon 08:11:40 PM 29.3614 -96.8267 71° East 472 543 29,100 -2,633 Descending Houston Center
Mon 08:12:10 PM 29.3792 -96.7625 72° East 454 522 27,900 -2,182 Descending Houston Center
Mon 08:12:35 PM 29.3933 -96.7192 69° East 447 514 27,100 -2,459 Descending Houston Center
Mon 08:13:11 PM 29.4206 -96.6264 71° East 433 498 25,400 -2,323 Descending Houston Center
Mon 08:13:37 PM 29.4322 -96.5878 71° East 441 507 24,700 -2,459 Descending Houston Center
Mon 08:14:12 PM 29.4597 -96.4928 72° East 427 491 22,900 -2,852 Descending Houston Center
Mon 08:14:38 PM 29.4769 -96.4361 71° East 424 488 21,800 -2,418 Descending Houston Center
Mon 08:15:19 PM 29.5006 -96.3539 72° East 408 470 20,200 -2,226 Descending Houston Center
Mon 08:15:40 PM 29.5128 -96.3147 70° East 407 468 19,500 -1,869 Descending Houston Center
Mon 08:16:20 PM 29.5350 -96.2397 71° East 385 443 18,300 -1,839 Descending Houston Center
Mon 08:16:42 PM 29.5472 -96.2008 70° East 385 443 17,600 -1,588 Descending Houston Center
Mon 08:17:28 PM 29.5853 -96.1167 63° Northeast 360 414 16,500 -1,475 Descending Houston Center
Mon 08:17:43 PM 29.5956 -96.0981 58° Northeast 367 422 16,100 -1,672 Descending Houston Center
Mon 08:18:29 PM 29.6350 -96.0125 62° Northeast 361 415 14,800 -1,548 Descending Houston Center
Mon 08:18:45 PM 29.6450 -95.9931 59° Northeast 364 419 14,500 -1,475 Descending Houston Center
Mon 08:19:30 PM 29.6811 -95.9136 62° Northeast 351 404 13,300 -1,355 Descending Houston Center
Mon 08:19:47 PM 29.6906 -95.8950 60° Northeast 351 404 13,100 -1,377 Descending Houston Center
Mon 08:20:31 PM 29.7253 -95.8194 62° Northeast 310 357 11,900 -1,475 Descending Houston Center
Mon 08:20:48 PM 29.7325 -95.8072 56° Northeast 319 367 11,600 -1,745 Descending Houston Center
Mon 08:21:26 PM 29.7644 -95.7403 61° Northeast 307 353 10,300 -1,645 Descending Houston Center
Mon 08:21:50 PM 29.7736 -95.7208 61° Northeast 312 359 9,900 -1,258 Descending Houston Center
Mon 08:22:28 PM 29.8031 -95.6539 63° Northeast 302 348 9,000 -871 Descending Houston Center
Mon 08:22:52 PM 29.8131 -95.6358 57° Northeast 305 351 9,000 -200 Level Houston Center
Mon 08:23:28 PM 29.8436 -95.5697 62° Northeast 291 335 8,800 -787 Descending Houston Center
Mon 08:23:53 PM 29.8589 -95.5369 62° Northeast 296 341 8,200 -1,452 Descending Houston Center
Mon 08:24:30 PM 29.8825 -95.4881 61° Northeast 290 334 7,300 -1,548 Descending Houston Center
Mon 08:24:55 PM 29.8922 -95.4536 72° East 291 335 6,600 -1,300 Descending Houston Center
Mon 08:25:30 PM 29.8914 -95.4003 91° East 276 318 6,000 -571 Descending Houston Center
Mon 08:25:58 PM 29.8928 -95.3631 88° East 283 326 6,000  Level Houston Center
Mon 08:26:32 PM 29.8911 -95.3064 92° East 275 316 6,000  Level Houston Center
Mon 08:26:59 PM 29.8917 -95.2747 89° East 279 321 6,000 -1,791 Level Houston Center
Mon 08:27:39 PM 29.8911 -95.2147 91° East 266 306 4,000 -2,656 Descending Houston Center
Mon 08:28:00 PM 29.8919 -95.1875 88° East 275 316 3,300 -2,073 Descending Houston Center
Mon 08:28:34 PM 29.8919 -95.1328 90° East 278 320 2,100 -1,258 Descending Houston Center
Mon 08:29:02 PM 29.8961 -95.1025 81° East 272 313 2,000 -109 Descending Houston Center
Mon 08:29:29 PM 29.9275 -95.0872 23° Northeast 244 281 2,000  Level Houston Center
Mon 08:30:04 PM 29.9483 -95.1075 320° Northwest 248 285 2,000  Level Houston Center
Mon 08:30:36 PM 29.9711 -95.1494 302° West 214 246 2,000  Level Houston Center
Mon 08:31:06 PM 29.9797 -95.1681 298° West 232 267 2,000 -393 Level Houston Center
Mon 08:31:37 PM 29.9769 -95.2139 266° West 194 223 1,600 -787 Descending Houston Center
Mon 08:32:07 PM 29.9775 -95.2417 271° West 205 236 1,200 -787 Descending Houston Center
Mon 08:32:38 PM 29.9778 -95.2669 271° West 152 175 800 -774 Descending Houston Center
Mon 08:33:09 PM 29.9772 -95.2886 268° West 175 201 400 -323 Descending Houston Center
Mon 08:34:11 PM 29.9769 -95.3353 270° West 170 196 300 -97 Descending Houston Center

Login

Don't have an account? Register now (free) for customized features, flight alerts, and more!